M I D A S
Marine Information and Data Acquisition System
Tripno 1811 of the Zeeleeuw from 2009-11-20 09:27:40 to 2009-11-20 15:13:05
Back to CruiseResearch ActivitiesStationsMapUnderway DataData graphs

EquipmentUnitsComment
TimeDGPSUTC
LatitudeDGPSDM.mWGS84
LongitudeDGPSDM.mWGS84
HeadingGyrodeg 
SOGDGPSknotsSpeed over ground
COGDGPSdegCourse over ground
DepthEcho soundermeters200 kHz
Missing or incorrect values are displayed as -999
Navigation data collected by the RV Zeeleeuw from 2009-11-20 09:26:08 to 2009-11-20 15:18:39
                                                                                    Next 1000 lines
Time Latitude Longitude Heading SOG COG Depth
2009-11-20 09:26:18 51°13.661 2°55.954 109.2 1.1 293 6.6
2009-11-20 09:26:23 51°13.662 2°55.95 109.4 1.5 291 6.7
2009-11-20 09:26:28 51°13.663 2°55.946 109.7 2 294 6.7
2009-11-20 09:26:33 51°13.665 2°55.941 109.7 2.4 292 -999
2009-11-20 09:26:39 51°13.667 2°55.935 109.7 2.6 294 -999
2009-11-20 09:26:45 51°13.669 2°55.928 108.8 2.9 293 -999
2009-11-20 09:26:50 51°13.671 2°55.922 108.2 3.1 293 -999
2009-11-20 09:26:56 51°13.673 2°55.914 107.5 3.2 291 -999
2009-11-20 09:27:02 51°13.674 2°55.906 106.2 3.2 290 -999
2009-11-20 09:27:06 51°13.676 2°55.9 104.8 3.3 288 -999
2009-11-20 09:27:12 51°13.677 2°55.892 103.6 3.3 287 -999
2009-11-20 09:27:16 51°13.678 2°55.886 102.4 3.3 286 -999
2009-11-20 09:27:21 51°13.68 2°55.879 101.3 3.3 285 -999
2009-11-20 09:27:26 51°13.681 2°55.872 100.6 3.3 284 -999
2009-11-20 09:27:32 51°13.682 2°55.863 99.8 3.4 283 -999
2009-11-20 09:27:37 51°13.683 2°55.856 99.2 3.3 283 -999
2009-11-20 09:27:41 51°13.684 2°55.851 98.5 3.3 281 -999
2009-11-20 09:27:46 51°13.685 2°55.843 97.6 3.3 282 -999
2009-11-20 09:27:52 51°13.686 2°55.835 96 3.2 280 -999
2009-11-20 09:27:57 51°13.686 2°55.828 94.3 3.2 279 -999
2009-11-20 09:28:01 51°13.687 2°55.822 92.5 3.2 277 -999
2009-11-20 09:28:06 51°13.687 2°55.815 90.6 3.1 276 -999
2009-11-20 09:28:12 51°13.687 2°55.808 88.5 3 274 -999
2009-11-20 09:28:17 51°13.688 2°55.801 86.6 2.9 273 -999
2009-11-20 09:28:21 51°13.688 2°55.796 84.7 2.9 271 -999
2009-11-20 09:28:26 51°13.687 2°55.79 82.8 2.7 270 -999
2009-11-20 09:28:31 51°13.687 2°55.785 80.7 2.6 269 -999
2009-11-20 09:28:37 51°13.687 2°55.778 79.2 2.5 269 -999
2009-11-20 09:28:42 51°13.687 2°55.773 77.6 2.2 269 -999
2009-11-20 09:28:46 51°13.687 2°55.77 75.8 1.6 272 -999
2009-11-20 09:28:51 51°13.687 2°55.768 72.8 0.9 280 -999
2009-11-20 09:28:56 51°13.687 2°55.767 68.2 0.6 298 11.3
2009-11-20 09:29:01 51°13.688 2°55.767 64.7 0.5 323 11.4
2009-11-20 09:29:06 51°13.688 2°55.766 60.1 0.4 344 11.5
2009-11-20 09:29:10 51°13.689 2°55.766 55 0.5 -999 11.6
2009-11-20 09:29:15 51°13.69 2°55.767 49.9 0.6 12 11.8
2009-11-20 09:29:21 51°13.691 2°55.767 45 0.7 12 11.8
2009-11-20 09:29:25 51°13.692 2°55.767 40.4 0.8 14 11.8
2009-11-20 09:29:30 51°13.693 2°55.768 36.1 0.8 14 12.1
2009-11-20 09:29:35 51°13.695 2°55.769 32.1 0.9 13 12.3
2009-11-20 09:29:40 51°13.696 2°55.769 29.1 0.8 6 12.4
2009-11-20 09:29:45 51°13.697 2°55.769 25.6 0.5 1 12.4
2009-11-20 09:29:50 51°13.697 2°55.769 23.1 0.3 339 12.5
2009-11-20 09:29:54 51°13.697 2°55.769 20.1 0.2 273 12.6
2009-11-20 09:29:59 51°13.696 2°55.769 17.3 0.3 227 12.8
2009-11-20 09:30:04 51°13.696 2°55.768 14.6 0.5 213 12.6
2009-11-20 09:30:09 51°13.695 2°55.767 12.4 0.7 204 12.6
2009-11-20 09:30:14 51°13.694 2°55.767 10.3 0.8 203 12.6
2009-11-20 09:30:18 51°13.693 2°55.766 8.3 0.7 201 12.5
2009-11-20 09:30:23 51°13.692 2°55.765 6.8 0.6 203 12.3
2009-11-20 09:30:28 51°13.691 2°55.765 5.4 0.4 210 12.1
2009-11-20 09:30:33 51°13.691 2°55.764 3.7 0.2 261 12.2
2009-11-20 09:30:38 51°13.692 2°55.764 1.8 0.3 321 12.2
2009-11-20 09:30:43 51°13.693 2°55.763 357.2 0.6 336 12.4
2009-11-20 09:30:48 51°13.694 2°55.762 353.4 0.9 337 12.5
2009-11-20 09:30:53 51°13.696 2°55.761 347.1 1.3 337 12.6
2009-11-20 09:30:58 51°13.698 2°55.759 341.6 1.5 335 12.8
2009-11-20 09:31:03 51°13.7 2°55.757 336.5 1.8 333 12.9
2009-11-20 09:31:08 51°13.703 2°55.754 331.9 2.4 331 13
2009-11-20 09:31:13 51°13.706 2°55.75 328.7 2.9 327 13
2009-11-20 09:31:18 51°13.71 2°55.746 324.9 3.4 326 12.5
2009-11-20 09:31:23 51°13.715 2°55.741 323.6 4 325 12.1
2009-11-20 09:31:28 51°13.72 2°55.735 323.4 4.4 325 11.8
2009-11-20 09:31:33 51°13.726 2°55.729 323.8 4.9 325 11.3
2009-11-20 09:31:38 51°13.732 2°55.722 323.9 5.2 324 10.9
2009-11-20 09:31:43 51°13.738 2°55.715 324.6 5.6 326 10.8
2009-11-20 09:31:48 51°13.745 2°55.708 325.4 5.9 325 10.8
2009-11-20 09:31:53 51°13.752 2°55.701 326.2 6.2 327 10.7
2009-11-20 09:31:58 51°13.76 2°55.693 327.4 6.4 327 10.8
2009-11-20 09:32:03 51°13.768 2°55.685 328.1 6.6 328 10.7
2009-11-20 09:32:08 51°13.776 2°55.677 329.2 6.8 329 10.5
2009-11-20 09:32:13 51°13.785 2°55.67 330 7.1 330 10.7
2009-11-20 09:32:18 51°13.794 2°55.662 330.7 7.2 331 10.5
2009-11-20 09:32:23 51°13.803 2°55.654 331.6 7.4 331 10.5
2009-11-20 09:32:28 51°13.812 2°55.646 332.3 7.6 333 10.3
2009-11-20 09:32:33 51°13.822 2°55.638 332.6 7.9 332 10.3
2009-11-20 09:32:38 51°13.832 2°55.63 332.6 8 333 10.4
2009-11-20 09:32:43 51°13.842 2°55.622 333.2 8.1 334 9.9
2009-11-20 09:32:48 51°13.852 2°55.614 334 8.3 334 10.1
2009-11-20 09:32:53 51°13.862 2°55.605 333.7 8.4 333 10.1
2009-11-20 09:32:58 51°13.873 2°55.597 333.1 8.4 333 10.1
2009-11-20 09:33:03 51°13.884 2°55.589 333.2 8.5 333 10.2
2009-11-20 09:33:08 51°13.894 2°55.58 334 8.6 334 10.1
2009-11-20 09:33:13 51°13.905 2°55.572 334.2 8.7 333 9.9
2009-11-20 09:33:18 51°13.916 2°55.563 334 8.7 334 10
2009-11-20 09:33:23 51°13.927 2°55.554 334 8.8 333 10
2009-11-20 09:33:28 51°13.938 2°55.545 333.9 8.9 333 10
2009-11-20 09:33:33 51°13.949 2°55.537 333.9 9 334 10
2009-11-20 09:33:38 51°13.96 2°55.528 334.1 9 334 10
2009-11-20 09:33:43 51°13.972 2°55.52 335.2 9.1 335 9.9
2009-11-20 09:33:48 51°13.983 2°55.511 335.3 9.1 335 9.9
2009-11-20 09:33:53 51°13.995 2°55.503 335.3 9.2 335 9.8
2009-11-20 09:33:58 51°14.007 2°55.494 335.5 9.2 336 9.7
2009-11-20 09:34:03 51°14.018 2°55.486 336.1 9.2 336 9.5
2009-11-20 09:34:08 51°14.03 2°55.478 336.9 9.2 337 9.5
2009-11-20 09:34:13 51°14.042 2°55.47 336.8 9.2 335 9.4
2009-11-20 09:34:18 51°14.053 2°55.461 336.5 9.2 336 9.4
2009-11-20 09:34:23 51°14.065 2°55.452 336.5 9.2 335 9.3
2009-11-20 09:34:28 51°14.077 2°55.444 336.3 9.3 336 9.3
2009-11-20 09:34:33 51°14.088 2°55.434 334.8 9.4 333 9.2
2009-11-20 09:34:38 51°14.1 2°55.426 334.4 9.4 335 9.3
2009-11-20 09:34:43 51°14.112 2°55.417 335.9 9.4 335 9.7
2009-11-20 09:34:48 51°14.123 2°55.408 335.8 9.4 334 9.4
2009-11-20 09:34:53 51°14.135 2°55.398 333.8 9.4 331 9.7
2009-11-20 09:34:58 51°14.146 2°55.388 332.2 9.4 331 9.7
2009-11-20 09:35:03 51°14.157 2°55.377 331.1 9.4 330 9.7
2009-11-20 09:35:08 51°14.169 2°55.367 330.6 9.4 330 9.7
2009-11-20 09:35:13 51°14.18 2°55.356 329.6 9.4 328 9.7
2009-11-20 09:35:18 51°14.19 2°55.344 327.7 9.3 326 9.8
2009-11-20 09:35:23 51°14.201 2°55.333 326.8 9.3 326 9.8
2009-11-20 09:35:28 51°14.211 2°55.32 324.7 9.3 322 9.8
2009-11-20 09:35:33 51°14.221 2°55.307 322.2 9.2 320 9.8
2009-11-20 09:35:38 51°14.23 2°55.294 320.8 9.1 320 9.8
2009-11-20 09:35:43 51°14.24 2°55.28 319.4 9.1 318 9.9
2009-11-20 09:35:48 51°14.249 2°55.266 317.7 9.1 316 9.9
2009-11-20 09:35:53 51°14.258 2°55.252 316.1 9.1 315 9.8
2009-11-20 09:35:58 51°14.266 2°55.237 314.4 9.1 313 9.7
2009-11-20 09:36:03 51°14.275 2°55.222 312.8 9.2 312 9.8
2009-11-20 09:36:08 51°14.283 2°55.206 310.9 9.2 310 9.7
2009-11-20 09:36:13 51°14.291 2°55.19 310.2 9.3 310 9.7
2009-11-20 09:36:18 51°14.299 2°55.174 309.6 9.3 309 9.7
2009-11-20 09:36:23 51°14.307 2°55.158 308.6 9.4 309 9.7
2009-11-20 09:36:28 51°14.316 2°55.142 308.8 9.4 310 9.8
2009-11-20 09:36:33 51°14.324 2°55.127 309.8 9.4 310 9.9
2009-11-20 09:36:38 51°14.333 2°55.111 310.8 9.4 312 10
2009-11-20 09:36:43 51°14.342 2°55.096 311.9 9.4 312 10
2009-11-20 09:36:48 51°14.351 2°55.081 312.6 9.4 313 9.9
2009-11-20 09:36:53 51°14.36 2°55.066 313.2 9.4 314 10
2009-11-20 09:36:58 51°14.369 2°55.051 314 9.4 315 9.7
2009-11-20 09:37:03 51°14.378 2°55.037 314.8 9.4 316 9.5
2009-11-20 09:37:08 51°14.388 2°55.023 316.3 9.4 318 9.2
2009-11-20 09:37:13 51°14.398 2°55.01 318.8 9.4 321 9.2
2009-11-20 09:37:18 51°14.408 2°54.997 320.5 9.4 321 9.2
2009-11-20 09:37:23 51°14.418 2°54.984 320.8 9.4 320 9.2
2009-11-20 09:37:28 51°14.428 2°54.97 320.1 9.4 319 9.4
2009-11-20 09:37:33 51°14.438 2°54.956 319.4 9.6 318 9.4
2009-11-20 09:37:38 51°14.448 2°54.941 318.9 9.7 318 9.3
2009-11-20 09:37:42 51°14.456 2°54.929 318 9.8 316 9.6
2009-11-20 09:37:48 51°14.467 2°54.91 317.4 10 315 9.5
2009-11-20 09:37:53 51°14.477 2°54.893 315.8 10.2 311 9.4
2009-11-20 09:37:58 51°14.486 2°54.874 313.2 10.4 308 9.6
2009-11-20 09:38:03 51°14.494 2°54.855 310 10.6 305 9.5
2009-11-20 09:38:08 51°14.501 2°54.835 306.5 10.8 302 9.4
2009-11-20 09:38:13 51°14.509 2°54.814 304.8 10.9 301 9.4
2009-11-20 09:38:18 51°14.517 2°54.793 304 11 301 9.5
2009-11-20 09:38:23 51°14.525 2°54.772 303.7 11.2 301 9.4
2009-11-20 09:38:28 51°14.533 2°54.751 304 11.2 302 9.3
2009-11-20 09:38:33 51°14.541 2°54.73 304.5 11.3 302 9.4
2009-11-20 09:38:38 51°14.55 2°54.708 304.5 11.3 301 9.4
2009-11-20 09:38:43 51°14.557 2°54.687 303.9 11.4 300 9.3
2009-11-20 09:38:48 51°14.566 2°54.665 303.6 11.4 301 9.3
2009-11-20 09:38:53 51°14.574 2°54.643 303.2 11.4 300 9.3
2009-11-20 09:38:58 51°14.582 2°54.621 303.5 11.5 301 9.3
2009-11-20 09:39:03 51°14.59 2°54.6 303.5 11.5 301 9.4
2009-11-20 09:39:08 51°14.598 2°54.578 303.3 11.5 301 9.4
2009-11-20 09:39:13 51°14.606 2°54.556 303.1 11.5 300 9.4
2009-11-20 09:39:18 51°14.614 2°54.534 302.8 11.5 301 9.4
2009-11-20 09:39:23 51°14.623 2°54.512 302.9 11.5 301 9.5
2009-11-20 09:39:28 51°14.631 2°54.49 303.2 11.5 300 9.6
2009-11-20 09:39:33 51°14.638 2°54.468 302.4 11.5 299 9.4
2009-11-20 09:39:38 51°14.646 2°54.445 301 11.5 298 9.5
2009-11-20 09:39:43 51°14.653 2°54.423 300.2 11.5 298 9.5
2009-11-20 09:39:48 51°14.661 2°54.4 300.1 11.5 298 9.5
2009-11-20 09:39:53 51°14.668 2°54.378 299.7 11.5 297 9.5
2009-11-20 09:39:58 51°14.675 2°54.355 299.7 11.5 298 9.5
2009-11-20 09:40:03 51°14.683 2°54.332 299.7 11.6 297 9.6
2009-11-20 09:40:08 51°14.69 2°54.31 299.8 11.5 297 9.6
2009-11-20 09:40:13 51°14.697 2°54.287 299.1 11.5 296 9.6
2009-11-20 09:40:18 51°14.704 2°54.264 297.8 11.5 295 9.6
2009-11-20 09:40:23 51°14.71 2°54.241 297 11.5 295 9.6
2009-11-20 09:40:28 51°14.717 2°54.217 296.3 11.5 293 9.6
2009-11-20 09:40:33 51°14.723 2°54.194 295.5 11.5 294 9.5
2009-11-20 09:40:38 51°14.729 2°54.17 295.2 11.5 293 9.4
2009-11-20 09:40:43 51°14.735 2°54.147 294.6 11.5 293 9.6
2009-11-20 09:40:48 51°14.741 2°54.123 294 11.5 292 9.5
2009-11-20 09:40:53 51°14.747 2°54.1 294 11.5 292 9.4
2009-11-20 09:40:58 51°14.753 2°54.076 293.7 11.5 292 9.4
2009-11-20 09:41:02 51°14.758 2°54.057 293.6 11.5 292 9.2
2009-11-20 09:41:08 51°14.765 2°54.03 293.9 11.4 292 9.1
2009-11-20 09:41:13 51°14.771 2°54.006 294 11.5 292 9.1
2009-11-20 09:41:18 51°14.777 2°53.982 294.1 11.5 292 9
2009-11-20 09:41:23 51°14.783 2°53.959 294 11.4 292 9
2009-11-20 09:41:28 51°14.789 2°53.936 293.6 11.4 292 8.9
2009-11-20 09:41:33 51°14.795 2°53.913 293.9 11.4 292 9
2009-11-20 09:41:38 51°14.801 2°53.889 294.1 11.4 292 8.8
2009-11-20 09:41:43 51°14.807 2°53.866 294 11.4 292 9
2009-11-20 09:41:48 51°14.812 2°53.843 294 11.4 292 9
2009-11-20 09:41:53 51°14.818 2°53.819 293.9 11.4 292 9
2009-11-20 09:41:58 51°14.824 2°53.796 294 11.4 292 9
2009-11-20 09:42:02 51°14.829 2°53.777 294.1 11.4 292 9.1
2009-11-20 09:42:08 51°14.836 2°53.749 293.7 11.4 292 9.1
2009-11-20 09:42:13 51°14.842 2°53.726 294 11.4 292 9
2009-11-20 09:42:18 51°14.848 2°53.702 294.1 11.4 292 9
2009-11-20 09:42:23 51°14.853 2°53.679 294 11.5 292 9
2009-11-20 09:42:28 51°14.859 2°53.655 293.8 11.4 291 9.1
2009-11-20 09:42:33 51°14.865 2°53.631 293.8 11.5 291 9
2009-11-20 09:42:38 51°14.871 2°53.608 293.7 11.5 291 9.1
2009-11-20 09:42:43 51°14.877 2°53.584 293.6 11.5 291 9.1
2009-11-20 09:42:48 51°14.883 2°53.561 293.5 11.5 292 9
2009-11-20 09:42:53 51°14.888 2°53.537 293.4 11.5 291 9.2
2009-11-20 09:42:58 51°14.894 2°53.514 293.6 11.5 291 9.1
2009-11-20 09:43:03 51°14.9 2°53.49 293.7 11.5 291 9.1
2009-11-20 09:43:03 51°14.9 2°53.49 293.7 11.5 291 9.1
2009-11-20 09:43:13 51°14.912 2°53.443 294.3 11.5 292 9.1
2009-11-20 09:43:13 51°14.912 2°53.443 294.3 11.5 292 9.1
2009-11-20 09:43:24 51°14.925 2°53.391 293.7 11.5 291 9.2
2009-11-20 09:43:29 51°14.931 2°53.368 293.8 11.5 292 9.2
2009-11-20 09:43:34 51°14.936 2°53.344 294 11.5 292 8.9
2009-11-20 09:43:39 51°14.942 2°53.321 294 11.4 292 9.2
2009-11-20 09:43:39 51°14.942 2°53.321 294 11.4 292 9.2
2009-11-20 09:43:52 51°14.958 2°53.26 294 11.5 291 9.2
2009-11-20 09:43:52 51°14.958 2°53.26 294 11.5 291 9.2
2009-11-20 09:44:03 51°14.97 2°53.208 294 11.5 291 9.3
2009-11-20 09:44:08 51°14.976 2°53.184 294 11.5 291 9.3
2009-11-20 09:44:13 51°14.982 2°53.16 294 11.5 291 9.3
2009-11-20 09:44:18 51°14.988 2°53.136 294 11.5 292 9.1
2009-11-20 09:44:22 51°14.992 2°53.117 294 11.5 291 9.2
2009-11-20 09:44:28 51°14.999 2°53.088 293.9 11.6 292 9.3
2009-11-20 09:44:33 51°15.005 2°53.064 294 11.5 292 9.2
2009-11-20 09:44:38 51°15.011 2°53.041 294.1 11.5 292 9.4
2009-11-20 09:44:43 51°15.017 2°53.017 294 11.5 291 9.5
2009-11-20 09:44:48 51°15.022 2°52.993 294 11.6 292 9.5
2009-11-20 09:44:53 51°15.028 2°52.969 294 11.6 291 9.3
2009-11-20 09:44:58 51°15.034 2°52.946 294.4 11.6 292 9.6
2009-11-20 09:45:03 51°15.04 2°52.922 294.7 11.6 292 9.5
2009-11-20 09:45:08 51°15.046 2°52.898 294.6 11.6 291 9.6
2009-11-20 09:45:13 51°15.052 2°52.874 294.4 11.6 292 9.6
2009-11-20 09:45:18 51°15.058 2°52.851 294.6 11.6 292 9.8
2009-11-20 09:45:23 51°15.064 2°52.827 294.6 11.6 291 9.7
2009-11-20 09:45:28 51°15.07 2°52.803 294.6 11.6 292 9.7
2009-11-20 09:45:33 51°15.076 2°52.779 294.3 11.6 291 9.8
2009-11-20 09:45:38 51°15.082 2°52.755 294 11.6 291 10
2009-11-20 09:45:43 51°15.087 2°52.731 294 11.6 291 10
2009-11-20 09:45:48 51°15.093 2°52.708 294.1 11.6 291 9.8
2009-11-20 09:45:53 51°15.099 2°52.684 294.1 11.6 291 10
2009-11-20 09:45:58 51°15.105 2°52.66 294.2 11.6 291 9.9
2009-11-20 09:46:03 51°15.111 2°52.636 294.5 11.6 292 10
2009-11-20 09:46:08 51°15.117 2°52.612 294.3 11.6 291 10.1
2009-11-20 09:46:13 51°15.123 2°52.588 294.1 11.6 291 10
2009-11-20 09:46:18 51°15.128 2°52.564 294.1 11.7 291 9.9
2009-11-20 09:46:23 51°15.134 2°52.54 294.1 11.6 291 10.1
2009-11-20 09:46:27 51°15.139 2°52.521 294 11.7 291 10
2009-11-20 09:46:33 51°15.146 2°52.492 293.4 11.6 290 10
2009-11-20 09:46:38 51°15.151 2°52.468 293.7 11.6 292 10.1
2009-11-20 09:46:43 51°15.156 2°52.444 293.8 11.6 290 10.2
2009-11-20 09:46:48 51°15.163 2°52.42 293.7 11.6 292 10.2
2009-11-20 09:46:53 51°15.168 2°52.396 294.1 11.6 291 10.1
2009-11-20 09:46:58 51°15.174 2°52.372 294 11.6 291 10.2
2009-11-20 09:47:03 51°15.18 2°52.348 294 11.6 291 10.2
2009-11-20 09:47:08 51°15.186 2°52.324 294 11.6 291 10.4
2009-11-20 09:47:13 51°15.191 2°52.3 293.8 11.6 290 10.3
2009-11-20 09:47:18 51°15.197 2°52.276 293.8 11.7 291 10.4
2009-11-20 09:47:23 51°15.203 2°52.252 294 11.7 291 10.4
2009-11-20 09:47:28 51°15.209 2°52.228 294.1 11.7 291 10.4
2009-11-20 09:47:33 51°15.215 2°52.204 294.3 11.7 292 10.6
2009-11-20 09:47:38 51°15.221 2°52.18 294.6 11.7 291 10.4
2009-11-20 09:47:43 51°15.226 2°52.156 294.4 11.7 291 10.7
2009-11-20 09:47:48 51°15.232 2°52.131 294.3 11.7 291 10.7
2009-11-20 09:47:53 51°15.238 2°52.107 294.2 11.7 292 10.6
2009-11-20 09:47:58 51°15.244 2°52.083 294.4 11.7 291 10.7
2009-11-20 09:48:03 51°15.25 2°52.059 294.4 11.6 291 10.8
2009-11-20 09:48:08 51°15.255 2°52.035 294.2 11.6 291 11
2009-11-20 09:48:13 51°15.259 2°52.01 290.9 11.6 284 10.9
2009-11-20 09:48:18 51°15.264 2°51.986 289.6 11.6 286 10.9
2009-11-20 09:48:23 51°15.268 2°51.961 288.8 11.5 284 11
2009-11-20 09:48:28 51°15.27 2°51.936 285.9 11.6 281 11
2009-11-20 09:48:33 51°15.273 2°51.91 282.8 11.6 280 11
2009-11-20 09:48:38 51°15.275 2°51.885 281 11.6 278 11.1
2009-11-20 09:48:42 51°15.276 2°51.864 279.1 11.6 276 11.2
2009-11-20 09:48:48 51°15.278 2°51.834 278.1 11.7 275 11.2
2009-11-20 09:48:53 51°15.279 2°51.808 276.6 11.7 273 11.4
2009-11-20 09:48:58 51°15.28 2°51.782 275.4 11.7 274 11.2
2009-11-20 09:49:03 51°15.28 2°51.756 274.4 11.7 272 11.2
2009-11-20 09:49:08 51°15.281 2°51.73 273.9 11.7 271 11.5
2009-11-20 09:49:13 51°15.281 2°51.704 273.1 11.8 270 11.4
2009-11-20 09:49:18 51°15.281 2°51.678 271.3 11.8 269 11.5
2009-11-20 09:49:23 51°15.28 2°51.651 270.2 11.8 268 11.5
2009-11-20 09:49:28 51°15.279 2°51.625 269.5 11.9 267 11.3
2009-11-20 09:49:33 51°15.279 2°51.599 269 11.9 267 11.4
2009-11-20 09:49:38 51°15.277 2°51.573 268 11.9 266 11.5
2009-11-20 09:49:43 51°15.276 2°51.547 267.8 11.9 266 11.4
2009-11-20 09:49:48 51°15.275 2°51.52 267.3 12 265 11.6
2009-11-20 09:49:53 51°15.274 2°51.494 266.7 12 266 11.6
2009-11-20 09:49:58 51°15.272 2°51.467 266.9 12 265 11.4
2009-11-20 09:50:03 51°15.271 2°51.441 266.6 12 265 11.7
2009-11-20 09:50:08 51°15.269 2°51.415 266.5 12 265 11.5
2009-11-20 09:50:13 51°15.268 2°51.388 266.5 12 265 11.6
2009-11-20 09:50:18 51°15.267 2°51.362 266.4 12 265 11.7
2009-11-20 09:50:23 51°15.266 2°51.334 266.7 12 265 11.7
2009-11-20 09:50:28 51°15.265 2°51.308 267.4 12 266 11.6
2009-11-20 09:50:33 51°15.263 2°51.281 267.6 12 266 11.7
2009-11-20 09:50:38 51°15.262 2°51.255 267.5 12 266 11.7
2009-11-20 09:50:42 51°15.261 2°51.233 267.5 12 266 11.7
2009-11-20 09:50:48 51°15.26 2°51.201 267.5 12.1 266 11.7
2009-11-20 09:50:53 51°15.259 2°51.175 267.5 12 266 11.9
2009-11-20 09:50:58 51°15.258 2°51.148 267.2 12 266 11.8
2009-11-20 09:51:03 51°15.257 2°51.122 267.5 12 266 11.9
2009-11-20 09:51:08 51°15.255 2°51.095 267.5 12.1 266 11.8
2009-11-20 09:51:13 51°15.254 2°51.069 267.6 12 266 12
2009-11-20 09:51:18 51°15.253 2°51.042 267.9 12.1 267 12
2009-11-20 09:51:23 51°15.252 2°51.015 267.9 12.1 266 11.9
2009-11-20 09:51:28 51°15.251 2°50.989 268.2 12 267 11.9
2009-11-20 09:51:33 51°15.25 2°50.962 268 12 266 11.9
2009-11-20 09:51:38 51°15.249 2°50.935 267.9 12.1 267 12
2009-11-20 09:51:43 51°15.248 2°50.909 268.2 12.1 267 12
2009-11-20 09:51:48 51°15.248 2°50.882 268.4 12 267 11.8
2009-11-20 09:51:53 51°15.246 2°50.856 268.7 12 267 12.2
2009-11-20 09:51:58 51°15.245 2°50.829 268.6 12 266 12.1
2009-11-20 09:52:03 51°15.244 2°50.803 268 12 265 12
2009-11-20 09:52:08 51°15.242 2°50.776 266.3 12 264 11.9
2009-11-20 09:52:13 51°15.24 2°50.75 265.7 12 264 12.2
2009-11-20 09:52:18 51°15.238 2°50.723 265.3 12 263 12.2
2009-11-20 09:52:23 51°15.237 2°50.697 264.6 12 263 12
2009-11-20 09:52:28 51°15.235 2°50.67 264.5 11.9 263 11.9
2009-11-20 09:52:33 51°15.232 2°50.644 263.7 12 262 12.2
2009-11-20 09:52:38 51°15.23 2°50.618 263.6 12 263 12.1
2009-11-20 09:52:42 51°15.228 2°50.597 263.3 12 262 12
2009-11-20 09:52:48 51°15.226 2°50.565 263.2 12 263 12.3
2009-11-20 09:52:53 51°15.223 2°50.54 263.3 12 262 12
2009-11-20 09:52:58 51°15.221 2°50.513 263.2 12 262 12.2
2009-11-20 09:53:03 51°15.219 2°50.487 263.2 12 262 12.4
2009-11-20 09:53:07 51°15.217 2°50.466 263.2 12.1 262 12.1
2009-11-20 09:53:13 51°15.214 2°50.434 263.1 12 262 12
2009-11-20 09:53:18 51°15.212 2°50.408 263.3 12.1 262 12.1
2009-11-20 09:53:23 51°15.209 2°50.382 263.3 12.1 262 12.1
2009-11-20 09:53:28 51°15.207 2°50.355 263.3 12.1 262 12.2
2009-11-20 09:53:33 51°15.205 2°50.329 263.5 12.1 262 12.2
2009-11-20 09:53:38 51°15.202 2°50.302 263.6 12.1 262 12.2
2009-11-20 09:53:43 51°15.2 2°50.276 263.6 12.1 262 12.1
2009-11-20 09:53:48 51°15.198 2°50.249 263.4 12.1 262 12
2009-11-20 09:53:53 51°15.195 2°50.223 263.3 12.1 262 12.4
2009-11-20 09:53:58 51°15.193 2°50.196 263.5 12.2 262 12.3
2009-11-20 09:54:03 51°15.191 2°50.169 263.6 12.2 263 12.1
2009-11-20 09:54:08 51°15.189 2°50.143 263.7 12.2 262 12
2009-11-20 09:54:13 51°15.186 2°50.116 263.4 12.2 262 12.4
2009-11-20 09:54:18 51°15.184 2°50.09 263.5 12.2 262 12.3
2009-11-20 09:54:23 51°15.182 2°50.063 263.5 12.1 262 12
2009-11-20 09:54:28 51°15.18 2°50.037 263.4 12.1 262 12.2
2009-11-20 09:54:33 51°15.177 2°50.01 263.6 12.1 263 12.2
2009-11-20 09:54:38 51°15.175 2°49.984 264 12.1 263 11.9
2009-11-20 09:54:43 51°15.173 2°49.957 264.2 12.1 263 12.4
2009-11-20 09:54:48 51°15.171 2°49.93 263.8 12.1 263 12.3
2009-11-20 09:54:53 51°15.169 2°49.904 263.9 12.1 263 12.4
2009-11-20 09:54:58 51°15.167 2°49.877 264.2 12.1 263 12.2
2009-11-20 09:55:02 51°15.165 2°49.856 264.3 12.1 263 12.2
2009-11-20 09:55:08 51°15.163 2°49.824 264.3 12.1 263 12.2
2009-11-20 09:55:13 51°15.161 2°49.797 264.3 12.1 263 12.4
2009-11-20 09:55:18 51°15.159 2°49.771 264.3 12.1 263 12.3
2009-11-20 09:55:23 51°15.156 2°49.744 264 12.1 263 12.2
2009-11-20 09:55:28 51°15.154 2°49.718 263.8 12 263 12.1
2009-11-20 09:55:33 51°15.152 2°49.691 264 12.1 263 12.3
2009-11-20 09:55:38 51°15.15 2°49.665 263.9 12.1 263 12.3
2009-11-20 09:55:43 51°15.148 2°49.639 263.9 12.1 263 12.2
2009-11-20 09:55:48 51°15.146 2°49.612 264.1 12 263 12.3
2009-11-20 09:55:53 51°15.144 2°49.586 264.1 12.1 263 12.4
2009-11-20 09:55:58 51°15.142 2°49.559 264.1 12 263 12.3
2009-11-20 09:56:03 51°15.14 2°49.533 263.9 12 262 12.3
2009-11-20 09:56:08 51°15.138 2°49.506 263.9 12 263 12.2
2009-11-20 09:56:13 51°15.136 2°49.48 264.3 12 263 12.2
2009-11-20 09:56:18 51°15.134 2°49.453 264.3 12 263 12.2
2009-11-20 09:56:23 51°15.132 2°49.427 264.1 12.1 263 12.2
2009-11-20 09:56:28 51°15.13 2°49.4 264.1 12.1 263 12.1
2009-11-20 09:56:33 51°15.128 2°49.374 264.2 12 263 12.3
2009-11-20 09:56:38 51°15.126 2°49.347 264.3 12 263 12.2
2009-11-20 09:56:42 51°15.124 2°49.326 264.3 12 263 12.1
2009-11-20 09:56:48 51°15.122 2°49.294 264.1 12 263 12.1
2009-11-20 09:56:53 51°15.12 2°49.268 263.7 12 263 12.2
2009-11-20 09:56:58 51°15.118 2°49.242 264.2 12 263 12.3
2009-11-20 09:57:03 51°15.116 2°49.215 264.2 12 263 12.2
2009-11-20 09:57:08 51°15.114 2°49.189 264.1 12 263 12.2
2009-11-20 09:57:13 51°15.112 2°49.162 264.1 12.1 263 12.3
2009-11-20 09:57:18 51°15.11 2°49.136 264.1 12 263 12.4
2009-11-20 09:57:23 51°15.108 2°49.11 264.2 12 263 12.4
2009-11-20 09:57:27 51°15.106 2°49.089 264.3 12 263 12.2
2009-11-20 09:57:33 51°15.104 2°49.058 264.1 11.9 263 12.2
2009-11-20 09:57:38 51°15.102 2°49.031 263.8 12 263 12.2
2009-11-20 09:57:43 51°15.1 2°49.005 264.1 11.9 263 12.3
2009-11-20 09:57:48 51°15.098 2°48.979 264 11.9 263 12.2
2009-11-20 09:57:53 51°15.096 2°48.953 263.7 12 263 12.2
2009-11-20 09:57:58 51°15.094 2°48.927 264 11.9 263 12.2
2009-11-20 09:58:03 51°15.091 2°48.9 263.7 11.9 262 12.4
2009-11-20 09:58:08 51°15.09 2°48.874 264 11.9 264 12.3
2009-11-20 09:58:13 51°15.088 2°48.848 264.3 12 263 12.2
2009-11-20 09:58:18 51°15.086 2°48.822 264.2 12 263 12
2009-11-20 09:58:22 51°15.084 2°48.801 263.9 12 263 12.3
2009-11-20 09:58:28 51°15.082 2°48.769 263.9 12 263 12.4
2009-11-20 09:58:33 51°15.08 2°48.743 264.1 11.9 263 12.2
2009-11-20 09:58:38 51°15.078 2°48.717 264.3 11.9 263 12.2
2009-11-20 09:58:43 51°15.076 2°48.691 264.1 12 263 12.3
2009-11-20 09:58:48 51°15.074 2°48.665 263.9 11.9 263 12.3
2009-11-20 09:58:53 51°15.072 2°48.638 264 11.9 264 12.3
2009-11-20 09:58:58 51°15.07 2°48.612 264.5 12 263 12.3
2009-11-20 09:59:02 51°15.068 2°48.591 264.4 11.9 263 12.3
2009-11-20 09:59:08 51°15.066 2°48.559 263.9 11.9 263 12.4
2009-11-20 09:59:13 51°15.064 2°48.533 264.2 11.9 263 12.4
2009-11-20 09:59:18 51°15.062 2°48.507 264.3 11.9 263 12.4
2009-11-20 09:59:23 51°15.06 2°48.481 264.1 11.9 263 12.5
2009-11-20 09:59:28 51°15.058 2°48.455 264 11.9 263 12.3
2009-11-20 09:59:33 51°15.056 2°48.429 264.3 11.9 264 12.4
2009-11-20 09:59:38 51°15.054 2°48.403 264.5 11.9 264 12.4
2009-11-20 09:59:43 51°15.052 2°48.377 264.6 11.9 263 12.5
2009-11-20 09:59:48 51°15.05 2°48.35 264.3 11.9 263 12.4
2009-11-20 09:59:53 51°15.048 2°48.324 264.1 11.9 263 12.5
2009-11-20 09:59:58 51°15.046 2°48.298 264.2 11.9 263 12.5
2009-11-20 10:00:03 51°15.044 2°48.272 264 11.9 263 12.5
2009-11-20 10:00:08 51°15.042 2°48.246 264 11.9 263 12.5
2009-11-20 10:00:13 51°15.04 2°48.219 264 11.9 263 12.3
2009-11-20 10:00:18 51°15.038 2°48.193 263.9 11.9 263 12.5
2009-11-20 10:00:22 51°15.037 2°48.172 264 11.9 263 12.6
2009-11-20 10:00:28 51°15.034 2°48.141 264 11.9 263 12.4
2009-11-20 10:00:33 51°15.032 2°48.115 264 11.9 263 12.5
2009-11-20 10:00:38 51°15.03 2°48.089 264 11.9 263 12.6
2009-11-20 10:00:43 51°15.028 2°48.063 264.1 11.9 263 12.5
2009-11-20 10:00:48 51°15.027 2°48.037 264.1 11.9 263 12.5
2009-11-20 10:00:53 51°15.024 2°48.011 264 11.9 263 12.6
2009-11-20 10:00:58 51°15.022 2°47.985 264 11.9 263 12.6
2009-11-20 10:01:03 51°15.021 2°47.958 264 11.9 263 12.4
2009-11-20 10:01:08 51°15.018 2°47.932 264 11.9 263 12.5
2009-11-20 10:01:13 51°15.017 2°47.906 264 11.9 263 12.5
2009-11-20 10:01:18 51°15.015 2°47.88 264 11.9 263 12.5
2009-11-20 10:01:23 51°15.013 2°47.854 263.8 11.9 263 12.4
2009-11-20 10:01:28 51°15.011 2°47.828 264 11.8 263 12.5
2009-11-20 10:01:33 51°15.009 2°47.802 264.2 11.8 263 12.3
2009-11-20 10:01:38 51°15.007 2°47.776 264 11.8 263 12.2
2009-11-20 10:01:42 51°15.005 2°47.755 263.7 11.8 263 12.3
2009-11-20 10:01:48 51°15.003 2°47.724 264.2 11.9 263 12.2
2009-11-20 10:01:53 51°15.001 2°47.698 264.3 11.8 264 12
2009-11-20 10:01:58 51°14.999 2°47.672 264.3 11.8 264 12
2009-11-20 10:02:03 51°14.997 2°47.646 264.3 11.9 263 11.8
2009-11-20 10:02:08 51°14.995 2°47.62 263.7 11.8 263 11.7
2009-11-20 10:02:13 51°14.993 2°47.595 263.8 11.8 263 11.7
2009-11-20 10:02:18 51°14.991 2°47.568 264 11.8 263 11.6
2009-11-20 10:02:23 51°14.99 2°47.543 264.3 11.8 264 11.5
2009-11-20 10:02:28 51°14.988 2°47.517 264.3 11.8 264 11.6
2009-11-20 10:02:33 51°14.986 2°47.491 264.6 11.8 264 11.2
2009-11-20 10:02:38 51°14.984 2°47.465 264.9 11.8 264 11
2009-11-20 10:02:43 51°14.982 2°47.439 264.7 11.8 264 11.1
2009-11-20 10:02:48 51°14.981 2°47.413 264.4 11.8 264 10.9
2009-11-20 10:02:53 51°14.979 2°47.387 264.3 11.8 263 10.5
2009-11-20 10:02:58 51°14.977 2°47.362 264.4 11.7 263 10.7
2009-11-20 10:03:03 51°14.975 2°47.336 264.3 11.7 263 10.4
2009-11-20 10:03:08 51°14.973 2°47.31 264.2 11.7 263 10.3
2009-11-20 10:03:13 51°14.971 2°47.285 264.1 11.7 264 10.1
2009-11-20 10:03:18 51°14.97 2°47.259 264.3 11.7 264 10
2009-11-20 10:03:23 51°14.968 2°47.233 264.4 11.7 264 10.2
2009-11-20 10:03:28 51°14.966 2°47.208 264.5 11.7 263 9.8
2009-11-20 10:03:33 51°14.964 2°47.182 264.3 11.7 263 9.6
2009-11-20 10:03:38 51°14.962 2°47.157 264.3 11.7 263 9.9
2009-11-20 10:03:42 51°14.961 2°47.136 264.1 11.7 263 9.4
2009-11-20 10:03:48 51°14.958 2°47.105 264.1 11.7 263 9.4
2009-11-20 10:03:53 51°14.956 2°47.08 264.1 11.7 263 9.6
2009-11-20 10:03:58 51°14.954 2°47.054 263.9 11.7 263 9.1
2009-11-20 10:04:02 51°14.953 2°47.034 263.8 11.6 263 9.4
2009-11-20 10:04:08 51°14.95 2°47.003 263.8 11.7 263 9.2
2009-11-20 10:04:13 51°14.949 2°46.978 263.9 11.6 263 9
2009-11-20 10:04:18 51°14.947 2°46.952 264.2 11.6 264 8.9
2009-11-20 10:04:22 51°14.945 2°46.932 264.4 11.6 264 9.2
2009-11-20 10:04:28 51°14.943 2°46.901 264.9 11.6 264 8.9
2009-11-20 10:04:33 51°14.941 2°46.876 265 11.6 264 8.6
2009-11-20 10:04:38 51°14.94 2°46.85 264.5 11.6 263 8.7
2009-11-20 10:04:43 51°14.938 2°46.825 264.6 11.6 263 8.6
2009-11-20 10:04:48 51°14.936 2°46.8 264.6 11.6 263 8.8
2009-11-20 10:04:53 51°14.934 2°46.774 264.7 11.6 263 9
2009-11-20 10:04:58 51°14.931 2°46.749 263.4 11.6 261 8.8
2009-11-20 10:05:03 51°14.928 2°46.724 262 11.7 260 8.8
2009-11-20 10:05:08 51°14.926 2°46.698 261.6 11.6 261 8.6
2009-11-20 10:05:13 51°14.922 2°46.673 260.5 11.6 259 8.7
2009-11-20 10:05:18 51°14.919 2°46.648 260.3 11.6 260 9
2009-11-20 10:05:23 51°14.916 2°46.623 259.7 11.6 258 8.7
2009-11-20 10:05:28 51°14.913 2°46.598 259.7 11.6 259 8.7
2009-11-20 10:05:33 51°14.909 2°46.573 258.8 11.6 256 8.8
2009-11-20 10:05:38 51°14.905 2°46.548 257.4 11.6 256 8.8
2009-11-20 10:05:42 51°14.902 2°46.528 256.6 11.6 255 9
2009-11-20 10:05:48 51°14.897 2°46.498 255.7 11.7 254 8.8
2009-11-20 10:05:53 51°14.892 2°46.473 255.2 11.7 255 8.8
2009-11-20 10:05:58 51°14.888 2°46.448 254.8 11.6 254 8.9
2009-11-20 10:06:03 51°14.883 2°46.424 254.4 11.6 253 8.8
2009-11-20 10:06:08 51°14.879 2°46.399 253.8 11.6 253 8.7
2009-11-20 10:06:13 51°14.874 2°46.375 253.5 11.6 253 8.8
2009-11-20 10:06:18 51°14.869 2°46.35 253.6 11.6 253 8.9
2009-11-20 10:06:22 51°14.865 2°46.33 253.4 11.7 253 8.8
2009-11-20 10:06:28 51°14.86 2°46.301 253.6 11.7 253 8.9
2009-11-20 10:06:33 51°14.855 2°46.276 253.6 11.7 253 8.8
2009-11-20 10:06:38 51°14.851 2°46.251 253.5 11.7 254 8.8
2009-11-20 10:06:43 51°14.846 2°46.227 253.9 11.7 254 8.8
2009-11-20 10:06:48 51°14.841 2°46.202 253.8 11.6 253 8.8
2009-11-20 10:06:53 51°14.837 2°46.177 253.4 11.7 253 8.9
2009-11-20 10:06:58 51°14.832 2°46.153 253.5 11.6 253 8.9
2009-11-20 10:07:02 51°14.828 2°46.133 253.6 11.7 253 9
2009-11-20 10:07:08 51°14.822 2°46.103 253.5 11.7 253 9.1
2009-11-20 10:07:13 51°14.818 2°46.078 253.7 11.7 253 9
2009-11-20 10:07:18 51°14.813 2°46.054 253.9 11.7 254 9
2009-11-20 10:07:23 51°14.809 2°46.029 254.2 11.7 254 9.1
2009-11-20 10:07:28 51°14.804 2°46.004 253.9 11.7 253 9.2
2009-11-20 10:07:33 51°14.799 2°45.979 253.4 11.7 253 9.1
2009-11-20 10:07:38 51°14.794 2°45.954 253.6 11.7 254 9.3
2009-11-20 10:07:42 51°14.791 2°45.935 254 11.7 254 9.2
2009-11-20 10:07:48 51°14.785 2°45.905 254 11.8 253 9.4
2009-11-20 10:07:53 51°14.78 2°45.88 253.9 11.8 253 9.4
2009-11-20 10:07:58 51°14.776 2°45.855 253.9 11.7 253 9.7
2009-11-20 10:08:03 51°14.771 2°45.83 253.9 11.8 253 9.5
2009-11-20 10:08:08 51°14.766 2°45.805 253.8 11.8 253 9.6
2009-11-20 10:08:13 51°14.762 2°45.78 253.6 11.8 253 9.9
2009-11-20 10:08:18 51°14.757 2°45.755 253.5 11.8 253 9.8
2009-11-20 10:08:23 51°14.752 2°45.73 253.6 11.8 253 10
2009-11-20 10:08:28 51°14.748 2°45.705 253.9 11.8 254 10
2009-11-20 10:08:33 51°14.743 2°45.68 253.9 11.8 254 10.1
2009-11-20 10:08:38 51°14.738 2°45.656 253.9 11.8 253 10
2009-11-20 10:08:42 51°14.735 2°45.636 253.9 11.8 253 10
2009-11-20 10:08:48 51°14.728 2°45.606 252.3 11.7 251 10.1
2009-11-20 10:08:53 51°14.723 2°45.582 251.4 11.7 251 10.2
2009-11-20 10:08:58 51°14.717 2°45.558 251.2 11.7 251 10.3
2009-11-20 10:09:03 51°14.711 2°45.533 250.1 11.7 250 10.3
2009-11-20 10:09:08 51°14.706 2°45.509 249.8 11.7 250 10.5
2009-11-20 10:09:13 51°14.7 2°45.485 249.3 11.7 248 10.4
2009-11-20 10:09:18 51°14.694 2°45.461 249 11.7 249 10.6
2009-11-20 10:09:23 51°14.688 2°45.436 248.7 11.7 249 10.6
2009-11-20 10:09:28 51°14.683 2°45.412 249 11.7 249 10.6
2009-11-20 10:09:33 51°14.676 2°45.388 249 11.7 248 10.7
2009-11-20 10:09:38 51°14.67 2°45.364 248.5 11.7 248 10.8
2009-11-20 10:09:43 51°14.664 2°45.341 247.3 11.7 246 10.7
2009-11-20 10:09:48 51°14.657 2°45.317 246.2 11.7 247 10.8
2009-11-20 10:09:53 51°14.65 2°45.294 245.7 11.7 244 10.8
2009-11-20 10:09:58 51°14.644 2°45.27 244.7 11.7 245 10.8
2009-11-20 10:10:03 51°14.637 2°45.247 244.6 11.7 245 10.8
2009-11-20 10:10:08 51°14.629 2°45.223 244 11.7 244 10.8
2009-11-20 10:10:13 51°14.622 2°45.2 243.6 11.8 244 10.9
2009-11-20 10:10:18 51°14.615 2°45.177 243.8 11.7 244 10.9
2009-11-20 10:10:23 51°14.608 2°45.153 243.2 11.8 243 11
2009-11-20 10:10:28 51°14.601 2°45.13 242.8 11.8 244 11
2009-11-20 10:10:33 51°14.594 2°45.107 243.2 11.8 244 10.9
2009-11-20 10:10:38 51°14.586 2°45.083 243.2 11.8 244 10.9
2009-11-20 10:10:42 51°14.581 2°45.065 243.2 11.8 244 11.1
2009-11-20 10:10:48 51°14.572 2°45.037 243.2 11.8 243 11.3
2009-11-20 10:10:53 51°14.565 2°45.013 243.7 11.8 244 11.2
2009-11-20 10:10:58 51°14.557 2°44.99 243.5 11.8 244 11.4
2009-11-20 10:11:03 51°14.551 2°44.967 243.7 11.7 245 11.3
2009-11-20 10:11:08 51°14.543 2°44.943 243.7 11.8 244 11.3
2009-11-20 10:11:13 51°14.536 2°44.92 243.5 11.7 243 11.1
2009-11-20 10:11:18 51°14.528 2°44.898 242.4 11.7 242 11.3
2009-11-20 10:11:23 51°14.52 2°44.876 239.7 11.7 238 11.3
2009-11-20 10:11:28 51°14.511 2°44.854 238.2 11.6 239 11.5
2009-11-20 10:11:33 51°14.502 2°44.832 237.1 11.6 236 11.4
2009-11-20 10:11:38 51°14.493 2°44.811 235.5 11.7 236 11.4
2009-11-20 10:11:43 51°14.484 2°44.79 234.8 11.7 235 11.4
2009-11-20 10:11:48 51°14.475 2°44.769 233.9 11.7 234 11.4
2009-11-20 10:11:53 51°14.465 2°44.748 233.1 11.7 234 11.5
2009-11-20 10:11:58 51°14.455 2°44.727 233.1 11.7 235 11.4
2009-11-20 10:12:02 51°14.448 2°44.711 232.3 11.7 233 11.2
2009-11-20 10:12:08 51°14.436 2°44.685 231.7 11.8 233 11.3
2009-11-20 10:12:13 51°14.426 2°44.664 231.7 11.8 233 11.3
2009-11-20 10:12:18 51°14.416 2°44.644 231.6 11.8 233 11.2
2009-11-20 10:12:23 51°14.406 2°44.623 231.6 11.8 233 11.4
2009-11-20 10:12:28 51°14.397 2°44.602 231.7 11.8 233 11.4
2009-11-20 10:12:33 51°14.387 2°44.582 231.5 11.9 233 11.4
2009-11-20 10:12:38 51°14.377 2°44.561 231.5 11.9 233 11.5
2009-11-20 10:12:42 51°14.369 2°44.544 231.7 11.8 233 11.3
2009-11-20 10:12:48 51°14.357 2°44.52 231.6 11.8 233 11.5
2009-11-20 10:12:53 51°14.347 2°44.499 231.6 11.8 233 11.3
2009-11-20 10:12:58 51°14.337 2°44.478 232.1 11.7 233 11.3
2009-11-20 10:13:02 51°14.329 2°44.461 231.5 11.8 233 11.4
2009-11-20 10:13:08 51°14.317 2°44.436 231.6 11.8 233 11.5
2009-11-20 10:13:13 51°14.308 2°44.415 232.2 11.8 234 11.3
2009-11-20 10:13:18 51°14.298 2°44.394 232.5 11.8 233 11.2
2009-11-20 10:13:23 51°14.288 2°44.373 232.2 11.8 233 11.3
2009-11-20 10:13:28 51°14.279 2°44.352 232.1 11.8 233 11.4
2009-11-20 10:13:33 51°14.269 2°44.332 232.3 11.7 233 11.4
2009-11-20 10:13:38 51°14.259 2°44.311 232.4 11.7 234 11.4
2009-11-20 10:13:43 51°14.25 2°44.29 232.7 11.7 234 11.4
2009-11-20 10:13:48 51°14.24 2°44.269 232.6 11.8 233 11.3
2009-11-20 10:13:53 51°14.23 2°44.248 232.3 11.7 234 11.4
2009-11-20 10:13:58 51°14.221 2°44.227 232.5 11.7 234 11.4
2009-11-20 10:14:03 51°14.211 2°44.207 232.6 11.7 233 11.4
2009-11-20 10:14:08 51°14.201 2°44.185 232.7 11.8 234 11.4
2009-11-20 10:14:13 51°14.192 2°44.164 232.8 11.8 234 11.4
2009-11-20 10:14:18 51°14.182 2°44.143 232.8 11.8 234 11.5
2009-11-20 10:14:23 51°14.172 2°44.123 232.5 11.8 233 11.3
2009-11-20 10:14:28 51°14.163 2°44.101 232.5 11.8 234 11.4
2009-11-20 10:14:33 51°14.153 2°44.08 232.9 11.8 234 11.4
2009-11-20 10:14:38 51°14.143 2°44.06 232.7 11.8 234 11.6
2009-11-20 10:14:42 51°14.135 2°44.043 232.9 11.8 234 11.5
2009-11-20 10:14:48 51°14.124 2°44.018 232.9 11.8 233 11.3
2009-11-20 10:14:53 51°14.114 2°43.997 232.5 11.8 234 11.7
2009-11-20 10:14:58 51°14.104 2°43.976 232.9 11.7 233 11.6
2009-11-20 10:15:03 51°14.095 2°43.955 232.7 11.8 234 11.5
2009-11-20 10:15:08 51°14.085 2°43.934 232.8 11.8 233 11.6
2009-11-20 10:15:13 51°14.075 2°43.913 232.4 11.8 234 11.7
2009-11-20 10:15:18 51°14.065 2°43.892 232.5 11.8 233 11.6
2009-11-20 10:15:22 51°14.058 2°43.875 232.9 11.8 234 11.6
2009-11-20 10:15:28 51°14.046 2°43.849 232.6 11.9 234 11.7
2009-11-20 10:15:33 51°14.037 2°43.828 233 11.8 234 11.6
2009-11-20 10:15:38 51°14.027 2°43.807 233.1 11.8 233 11.6
2009-11-20 10:15:43 51°14.017 2°43.786 232.8 11.9 234 11.7
2009-11-20 10:15:48 51°14.007 2°43.765 232.6 11.8 233 11.5
2009-11-20 10:15:53 51°13.998 2°43.744 232.9 11.8 234 11.8
2009-11-20 10:15:58 51°13.988 2°43.723 232.7 11.8 234 11.7
2009-11-20 10:16:03 51°13.978 2°43.702 233 11.8 234 11.8
2009-11-20 10:16:08 51°13.968 2°43.681 233.2 11.8 234 11.8
2009-11-20 10:16:13 51°13.959 2°43.659 233.6 11.8 234 11.8
2009-11-20 10:16:18 51°13.949 2°43.638 233.2 11.8 234 11.7
2009-11-20 10:16:23 51°13.94 2°43.617 233.4 11.8 234 11.7
2009-11-20 10:16:28 51°13.93 2°43.596 233.1 11.8 233 11.8
2009-11-20 10:16:33 51°13.921 2°43.575 233 11.8 234 11.9
2009-11-20 10:16:38 51°13.911 2°43.554 233.1 11.7 234 11.9
2009-11-20 10:16:42 51°13.903 2°43.537 233.1 11.8 234 12
2009-11-20 10:16:48 51°13.892 2°43.512 233.1 11.8 234 11.9
2009-11-20 10:16:53 51°13.882 2°43.491 232.9 11.8 234 12
2009-11-20 10:16:58 51°13.872 2°43.47 232.8 11.8 233 12.1
2009-11-20 10:17:03 51°13.863 2°43.449 232.7 11.8 234 12.1
2009-11-20 10:17:08 51°13.853 2°43.428 232.9 11.8 233 12.1
2009-11-20 10:17:13 51°13.843 2°43.407 233 11.8 234 12
2009-11-20 10:17:18 51°13.834 2°43.386 232.8 11.8 234 11.9
2009-11-20 10:17:22 51°13.826 2°43.37 232.8 11.7 234 12.1
2009-11-20 10:17:28 51°13.814 2°43.344 232.8 11.8 234 12.1
2009-11-20 10:17:33 51°13.805 2°43.323 233 11.8 234 12
2009-11-20 10:17:38 51°13.795 2°43.302 232.8 11.8 233 12.3
2009-11-20 10:17:43 51°13.786 2°43.281 232.8 11.8 234 12.1
2009-11-20 10:17:48 51°13.776 2°43.26 232.8 11.7 233 12
2009-11-20 10:17:53 51°13.766 2°43.239 232.9 11.8 234 12.1
2009-11-20 10:17:58 51°13.757 2°43.218 232.9 11.8 234 12.1
2009-11-20 10:18:03 51°13.747 2°43.197 233.2 11.8 234 12
2009-11-20 10:18:08 51°13.737 2°43.176 232.7 11.8 234 12.1
2009-11-20 10:18:13 51°13.728 2°43.155 233.1 11.8 234 12.1
2009-11-20 10:18:18 51°13.718 2°43.134 233.6 11.7 234 12.1
2009-11-20 10:18:23 51°13.709 2°43.113 233.2 11.7 233 12.2
2009-11-20 10:18:28 51°13.699 2°43.092 233 11.7 234 12
2009-11-20 10:18:33 51°13.689 2°43.071 233 11.8 233 12.3
2009-11-20 10:18:38 51°13.679 2°43.05 233 11.8 233 12.2
2009-11-20 10:18:43 51°13.67 2°43.029 232.8 11.8 233 12.1
2009-11-20 10:18:48 51°13.66 2°43.008 232.8 11.8 234 12.2
2009-11-20 10:18:53 51°13.65 2°42.987 232.9 11.8 234 12.1
2009-11-20 10:18:58 51°13.64 2°42.966 233.1 11.8 233 12.1
2009-11-20 10:19:02 51°13.632 2°42.95 232.7 11.8 234 12.2
2009-11-20 10:19:08 51°13.621 2°42.925 233.1 11.8 233 12
2009-11-20 10:19:13 51°13.611 2°42.904 232.9 11.8 234 12.1
2009-11-20 10:19:18 51°13.602 2°42.883 233.1 11.7 234 12.1
2009-11-20 10:19:22 51°13.594 2°42.866 233.2 11.7 234 12.1
2009-11-20 10:19:28 51°13.582 2°42.841 233.1 11.8 233 12.1
2009-11-20 10:19:33 51°13.572 2°42.82 233.1 11.8 234 12
2009-11-20 10:19:38 51°13.563 2°42.799 232.9 11.8 233 12.1
2009-11-20 10:19:43 51°13.553 2°42.778 233.1 11.8 234 12
2009-11-20 10:19:48 51°13.543 2°42.757 233 11.8 233 12.1
2009-11-20 10:19:53 51°13.534 2°42.736 233.1 11.8 234 12
2009-11-20 10:19:58 51°13.524 2°42.715 233.2 11.8 233 12
2009-11-20 10:20:02 51°13.516 2°42.698 233.5 11.8 234 12
2009-11-20 10:20:08 51°13.504 2°42.673 233.4 11.8 233 11.9
2009-11-20 10:20:13 51°13.495 2°42.652 233.4 11.8 234 12.3
2009-11-20 10:20:18 51°13.485 2°42.631 233.5 11.8 233 11.9
2009-11-20 10:20:23 51°13.475 2°42.61 233 11.8 233 11.9
2009-11-20 10:20:28 51°13.465 2°42.589 233.2 11.8 234 12
2009-11-20 10:20:33 51°13.456 2°42.568 233.2 11.8 234 11.9
2009-11-20 10:20:38 51°13.446 2°42.547 233.3 11.8 233 11.9
2009-11-20 10:20:43 51°13.436 2°42.526 233.1 11.8 233 11.9
2009-11-20 10:20:48 51°13.427 2°42.505 232.8 11.8 233 11.8
2009-11-20 10:20:53 51°13.417 2°42.485 232.6 11.8 234 12
2009-11-20 10:20:58 51°13.407 2°42.464 233.3 11.8 234 11.9
2009-11-20 10:21:03 51°13.397 2°42.443 233.1 11.8 233 11.9
2009-11-20 10:21:08 51°13.388 2°42.422 233.1 11.8 234 12
2009-11-20 10:21:13 51°13.378 2°42.401 233.3 11.8 234 12
2009-11-20 10:21:18 51°13.368 2°42.38 233.6 11.8 235 11.8
2009-11-20 10:21:22 51°13.36 2°42.363 233.1 11.8 233 12
2009-11-20 10:21:28 51°13.349 2°42.338 233.1 11.8 234 11.9
2009-11-20 10:21:33 51°13.339 2°42.317 233.1 11.8 233 11.9
2009-11-20 10:21:38 51°13.329 2°42.296 233.1 11.8 233 12
2009-11-20 10:21:42 51°13.321 2°42.279 233 11.8 233 11.9
2009-11-20 10:21:48 51°13.31 2°42.254 233.2 11.8 234 11.7
2009-11-20 10:21:53 51°13.3 2°42.233 233.2 11.8 234 11.9
2009-11-20 10:21:58 51°13.29 2°42.212 233.3 11.8 234 11.9
2009-11-20 10:22:03 51°13.281 2°42.191 233.2 11.8 234 11.8
2009-11-20 10:22:08 51°13.271 2°42.17 233.2 11.8 234 11.8
2009-11-20 10:22:13 51°13.261 2°42.149 233.7 11.8 234 11.8
2009-11-20 10:22:18 51°13.252 2°42.128 233.3 11.8 234 11.9
2009-11-20 10:22:22 51°13.244 2°42.111 233.2 11.8 234 11.7
2009-11-20 10:22:28 51°13.232 2°42.086 233.2 11.7 234 11.9
2009-11-20 10:22:33 51°13.223 2°42.065 233.6 11.8 234 11.8
2009-11-20 10:22:38 51°13.213 2°42.044 233.2 11.8 234 11.7
2009-11-20 10:22:43 51°13.203 2°42.023 233.2 11.8 234 11.9
2009-11-20 10:22:48 51°13.194 2°42.002 233.4 11.8 233 11.8
2009-11-20 10:22:53 51°13.184 2°41.981 233 11.7 234 11.9
2009-11-20 10:22:58 51°13.174 2°41.961 233.6 11.7 234 11.9
2009-11-20 10:23:03 51°13.165 2°41.94 233.6 11.8 234 11.7
2009-11-20 10:23:08 51°13.155 2°41.919 233.7 11.7 233 11.9
2009-11-20 10:23:13 51°13.146 2°41.898 233.5 11.7 234 12
2009-11-20 10:23:18 51°13.136 2°41.877 233.2 11.8 234 11.8
2009-11-20 10:23:22 51°13.128 2°41.86 233.1 11.8 233 11.9
2009-11-20 10:23:28 51°13.116 2°41.835 233.1 11.7 233 11.7
2009-11-20 10:23:33 51°13.107 2°41.815 233.2 11.7 233 11.7
2009-11-20 10:23:38 51°13.097 2°41.794 233.3 11.7 234 11.9
2009-11-20 10:23:43 51°13.087 2°41.773 233.3 11.7 233 11.8
2009-11-20 10:23:48 51°13.078 2°41.752 233 11.7 233 11.8
2009-11-20 10:23:53 51°13.068 2°41.731 233 11.7 234 11.8
2009-11-20 10:23:58 51°13.058 2°41.71 233.4 11.7 233 11.6
2009-11-20 10:24:02 51°13.051 2°41.694 233.1 11.7 233 11.8
2009-11-20 10:24:08 51°13.039 2°41.669 233.4 11.7 234 11.8
2009-11-20 10:24:13 51°13.029 2°41.648 233.4 11.7 233 11.8
2009-11-20 10:24:18 51°13.02 2°41.627 233.1 11.7 234 11.7
2009-11-20 10:24:22 51°13.012 2°41.61 233.3 11.8 233 11.7
2009-11-20 10:24:28 51°13 2°41.585 233.1 11.9 234 11.8
2009-11-20 10:24:33 51°12.991 2°41.564 233.5 11.8 234 11.7
2009-11-20 10:24:38 51°12.981 2°41.543 234.7 11.8 236 11.8
2009-11-20 10:24:43 51°12.972 2°41.521 235.2 11.8 235 11.8
2009-11-20 10:24:48 51°12.963 2°41.5 235.4 11.8 236 11.7
2009-11-20 10:24:53 51°12.954 2°41.478 235.3 11.8 235 11.8
2009-11-20 10:24:58 51°12.945 2°41.457 235.6 11.8 236 11.8
2009-11-20 10:25:03 51°12.936 2°41.435 236.3 11.8 237 11.9
2009-11-20 10:25:08 51°12.927 2°41.413 237 11.8 237 11.9
2009-11-20 10:25:13 51°12.918 2°41.391 237.2 11.8 238 11.8
2009-11-20 10:25:18 51°12.909 2°41.369 237.5 11.7 237 11.7
2009-11-20 10:25:23 51°12.901 2°41.348 238 11.7 238 11.9
2009-11-20 10:25:28 51°12.892 2°41.326 238 11.7 237 11.8
2009-11-20 10:25:33 51°12.883 2°41.304 237.8 11.7 238 11.7
2009-11-20 10:25:38 51°12.875 2°41.282 238.1 11.8 238 11.8
2009-11-20 10:25:43 51°12.866 2°41.259 238.2 11.8 239 11.8
2009-11-20 10:25:48 51°12.857 2°41.238 238.2 11.8 237 11.8
2009-11-20 10:25:53 51°12.849 2°41.216 237.8 11.8 238 11.8
2009-11-20 10:25:58 51°12.84 2°41.194 237.6 11.8 237 11.8
2009-11-20 10:26:02 51°12.833 2°41.176 237.4 11.8 237 11.6
2009-11-20 10:26:08 51°12.822 2°41.15 237.5 11.8 238 11.7
2009-11-20 10:26:13 51°12.813 2°41.128 237.6 11.8 238 11.8
2009-11-20 10:26:18 51°12.804 2°41.106 237.8 11.8 238 11.6
2009-11-20 10:26:23 51°12.795 2°41.085 237.6 11.7 237 11.7
2009-11-20 10:26:28 51°12.786 2°41.063 236.4 11.7 235 11.7
2009-11-20 10:26:33 51°12.777 2°41.041 236.3 11.7 236 11.7
2009-11-20 10:26:38 51°12.768 2°41.02 235.9 11.8 235 11.6
2009-11-20 10:26:42 51°12.761 2°41.003 235.2 11.7 235 11.6
2009-11-20 10:26:48 51°12.75 2°40.977 234.8 11.8 234 11.7
2009-11-20 10:26:53 51°12.74 2°40.956 234.5 11.8 235 11.6
2009-11-20 10:26:58 51°12.73 2°40.935 234.3 11.8 233 11.5
2009-11-20 10:27:03 51°12.721 2°40.914 234.2 11.8 235 11.5
2009-11-20 10:27:08 51°12.712 2°40.893 234.5 11.8 233 11.7
2009-11-20 10:27:13 51°12.702 2°40.871 234.3 11.8 235 11.5
2009-11-20 10:27:18 51°12.693 2°40.85 234.5 11.8 234 11.4
2009-11-20 10:27:23 51°12.683 2°40.829 234.1 11.9 234 11.4
2009-11-20 10:27:28 51°12.673 2°40.808 234.3 11.7 234 11.5
2009-11-20 10:27:33 51°12.664 2°40.787 234 11.8 235 11.6
2009-11-20 10:27:38 51°12.654 2°40.766 234.1 11.8 234 11.7
2009-11-20 10:27:43 51°12.645 2°40.745 234.1 11.8 234 11.6
2009-11-20 10:27:48 51°12.635 2°40.724 233.8 11.8 234 11.7
2009-11-20 10:27:53 51°12.626 2°40.703 234.3 11.7 234 11.6
2009-11-20 10:27:58 51°12.616 2°40.681 234.6 11.8 235 10.6
2009-11-20 10:28:02 51°12.608 2°40.665 234 11.8 234 11.1
2009-11-20 10:28:08 51°12.597 2°40.64 234.5 11.8 235 11.3
2009-11-20 10:28:13 51°12.587 2°40.619 234.5 11.8 234 11.6
2009-11-20 10:28:18 51°12.577 2°40.598 234.4 11.7 234 11.5
2009-11-20 10:28:22 51°12.57 2°40.581 234.2 11.7 234 11.4
2009-11-20 10:28:28 51°12.558 2°40.555 233.9 11.8 235 11.5
2009-11-20 10:28:33 51°12.549 2°40.533 234.3 11.8 234 11.6
2009-11-20 10:28:38 51°12.54 2°40.512 234.4 11.8 234 11.6
2009-11-20 10:28:43 51°12.531 2°40.491 234.1 11.8 234 11.5
2009-11-20 10:28:48 51°12.521 2°40.47 234.5 11.7 235 11.7
2009-11-20 10:28:53 51°12.511 2°40.449 234.3 11.8 234 11.6
2009-11-20 10:28:58 51°12.502 2°40.428 234.3 11.7 235 11.6
2009-11-20 10:29:02 51°12.494 2°40.411 234.2 11.8 233 11.8
2009-11-20 10:29:08 51°12.483 2°40.385 234 11.8 234 11.6
2009-11-20 10:29:13 51°12.473 2°40.364 234.3 11.8 234 10.9
2009-11-20 10:29:18 51°12.463 2°40.343 234.4 11.8 234 11.3
2009-11-20 10:29:23 51°12.454 2°40.322 234.1 11.8 234 11.3
2009-11-20 10:29:28 51°12.444 2°40.301 234.3 11.8 234 11.4
2009-11-20 10:29:33 51°12.435 2°40.28 234 11.8 234 11.5
2009-11-20 10:29:38 51°12.425 2°40.259 233.9 11.8 234 11.5
2009-11-20 10:29:43 51°12.415 2°40.238 234.4 11.8 234 11.3
2009-11-20 10:29:48 51°12.406 2°40.217 234.1 11.8 234 11.3
2009-11-20 10:29:53 51°12.396 2°40.196 234.2 11.7 234 10.9
2009-11-20 10:29:58 51°12.387 2°40.174 234.2 11.8 234 11.2
2009-11-20 10:30:02 51°12.379 2°40.158 234.2 11.7 235 11.2
2009-11-20 10:30:08 51°12.367 2°40.132 234.4 11.7 234 11.5
2009-11-20 10:30:13 51°12.358 2°40.111 233.8 11.8 234 11.3
2009-11-20 10:30:18 51°12.348 2°40.09 233.8 11.8 234 11.5
2009-11-20 10:30:23 51°12.339 2°40.069 234.5 11.7 234 11.2
2009-11-20 10:30:28 51°12.329 2°40.048 234.3 11.7 234 11.4
2009-11-20 10:30:33 51°12.319 2°40.028 234 11.7 234 9.7
2009-11-20 10:30:38 51°12.31 2°40.007 234.5 11.7 234 10.5
2009-11-20 10:30:42 51°12.302 2°39.99 233.8 11.7 233 11
2009-11-20 10:30:48 51°12.291 2°39.965 234 11.6 234 11.2
2009-11-20 10:30:53 51°12.281 2°39.945 234.3 11.7 234 11.2
2009-11-20 10:30:58 51°12.272 2°39.923 234.2 11.7 235 11.1
2009-11-20 10:31:03 51°12.262 2°39.902 234.1 11.8 234 11
2009-11-20 10:31:08 51°12.253 2°39.881 234.2 11.8 234 10.9
2009-11-20 10:31:13 51°12.243 2°39.86 234.2 11.7 234 10.8
2009-11-20 10:31:18 51°12.234 2°39.839 234 11.7 234 11
2009-11-20 10:31:23 51°12.224 2°39.818 234.2 11.7 234 11
2009-11-20 10:31:28 51°12.215 2°39.797 234.3 11.7 235 10.9
2009-11-20 10:31:33 51°12.205 2°39.776 234.3 11.7 234 11
2009-11-20 10:31:38 51°12.196 2°39.755 234.5 11.7 234 10.9
2009-11-20 10:31:43 51°12.186 2°39.734 234.2 11.8 234 11.1
2009-11-20 10:31:48 51°12.177 2°39.713 234.3 11.7 235 10.7
2009-11-20 10:31:53 51°12.167 2°39.692 234.2 11.7 234 10
2009-11-20 10:31:58 51°12.157 2°39.671 234 11.8 234 10.4
2009-11-20 10:32:03 51°12.148 2°39.65 234.3 11.8 234 10.6
2009-11-20 10:32:08 51°12.139 2°39.629 234.9 11.7 235 10.6
2009-11-20 10:32:13 51°12.129 2°39.608 234.5 11.8 234 10.8
2009-11-20 10:32:18 51°12.12 2°39.586 234.5 11.7 235 10.7
2009-11-20 10:32:23 51°12.11 2°39.565 234.4 11.8 233 10.8
2009-11-20 10:32:28 51°12.101 2°39.544 234.6 11.7 236 10.8
2009-11-20 10:32:33 51°12.091 2°39.523 234.6 11.7 234 10.8
2009-11-20 10:32:38 51°12.082 2°39.502 234.3 11.7 235 11
2009-11-20 10:32:42 51°12.074 2°39.485 234.5 11.7 234 10.8
2009-11-20 10:32:48 51°12.063 2°39.46 234.5 11.7 235 10.7
2009-11-20 10:32:53 51°12.053 2°39.439 234.3 11.7 234 10.7
2009-11-20 10:32:58 51°12.044 2°39.417 234.3 11.7 235 10.9
2009-11-20 10:33:03 51°12.034 2°39.397 234.5 11.7 233 10.6
2009-11-20 10:33:08 51°12.025 2°39.376 234.4 11.7 235 10.4
2009-11-20 10:33:13 51°12.016 2°39.355 234 11.7 234 10.3
2009-11-20 10:33:18 51°12.006 2°39.333 234.4 11.7 235 10.5
2009-11-20 10:33:22 51°11.999 2°39.317 234.5 11.7 235 10.7
2009-11-20 10:33:28 51°11.988 2°39.291 234.6 11.7 235 10.8
2009-11-20 10:33:33 51°11.978 2°39.27 234.4 11.7 234 10.7
2009-11-20 10:33:38 51°11.968 2°39.249 234.1 11.7 234 10.7
2009-11-20 10:33:43 51°11.959 2°39.228 234.3 11.7 235 10.7
2009-11-20 10:33:48 51°11.949 2°39.207 234.5 11.7 235 10.9
2009-11-20 10:33:53 51°11.94 2°39.186 234.2 11.7 234 10.9
2009-11-20 10:33:58 51°11.931 2°39.165 234.5 11.7 235 10.9
2009-11-20 10:34:02 51°11.924 2°39.148 234.5 11.7 234 10.4
2009-11-20 10:34:08 51°11.912 2°39.123 233.8 11.7 234 10.3
2009-11-20 10:34:13 51°11.903 2°39.102 233.8 11.6 234 10.5
2009-11-20 10:34:18 51°11.894 2°39.081 234.4 11.6 235 10.6
2009-11-20 10:34:23 51°11.884 2°39.06 234.3 11.6 234 10.5
2009-11-20 10:34:28 51°11.874 2°39.04 233.5 11.6 233 10.5
2009-11-20 10:34:33 51°11.865 2°39.019 233.2 11.7 234 10.4
2009-11-20 10:34:38 51°11.855 2°38.998 233.1 11.7 234 10.5
2009-11-20 10:34:42 51°11.847 2°38.982 233.6 11.7 234 10.4
2009-11-20 10:34:48 51°11.836 2°38.957 234 11.6 234 10.6
2009-11-20 10:34:53 51°11.826 2°38.936 234 11.6 233 10.4
2009-11-20 10:34:58 51°11.817 2°38.916 233.1 11.7 233 10.4
2009-11-20 10:35:02 51°11.809 2°38.899 233.3 11.6 234 10.5
2009-11-20 10:35:08 51°11.797 2°38.874 234 11.7 234 10.6
2009-11-20 10:35:13 51°11.788 2°38.853 234.1 11.7 234 10.3
2009-11-20 10:35:18 51°11.779 2°38.832 234.3 11.7 234 10.3
2009-11-20 10:35:23 51°11.769 2°38.811 234.3 11.7 235 10.3
2009-11-20 10:35:28 51°11.76 2°38.79 234.6 11.7 234 10.3
2009-11-20 10:35:33 51°11.751 2°38.769 234.4 11.7 235 10.2
2009-11-20 10:35:38 51°11.741 2°38.748 234.5 11.7 235 10.2
2009-11-20 10:35:42 51°11.734 2°38.731 234.7 11.6 235 10.2
2009-11-20 10:35:48 51°11.722 2°38.706 234.5 11.6 234 10.2
2009-11-20 10:35:53 51°11.713 2°38.685 234.3 11.6 235 10.3
2009-11-20 10:35:58 51°11.704 2°38.664 234.8 11.6 235 10.3
2009-11-20 10:36:03 51°11.694 2°38.644 234.5 11.6 234 9.8
2009-11-20 10:36:08 51°11.685 2°38.622 234.2 11.6 235 10.2
2009-11-20 10:36:13 51°11.675 2°38.602 234.5 11.6 234 10.1
2009-11-20 10:36:18 51°11.666 2°38.581 234.2 11.6 235 10.3
2009-11-20 10:36:23 51°11.657 2°38.56 234.8 11.6 235 10.2
2009-11-20 10:36:28 51°11.647 2°38.539 234.9 11.6 234 10.1
2009-11-20 10:36:33 51°11.638 2°38.518 234.3 11.6 234 10.2
2009-11-20 10:36:38 51°11.628 2°38.497 234.3 11.7 234 10.3
2009-11-20 10:36:43 51°11.619 2°38.476 234.8 11.7 235 10.2
2009-11-20 10:36:48 51°11.609 2°38.456 234.5 11.7 234 10.5
2009-11-20 10:36:53 51°11.6 2°38.434 234.5 11.7 235 10.3
2009-11-20 10:36:58 51°11.59 2°38.414 234.3 11.7 234 10.2
2009-11-20 10:37:02 51°11.583 2°38.397 234.3 11.7 235 10.4
2009-11-20 10:37:08 51°11.571 2°38.372 234.5 11.7 234 10.2
2009-11-20 10:37:13 51°11.562 2°38.351 234.2 11.7 235 10.4
2009-11-20 10:37:18 51°11.553 2°38.33 234.2 11.7 234 10.3
2009-11-20 10:37:23 51°11.544 2°38.309 234.3 11.7 235 10.3
2009-11-20 10:37:28 51°11.534 2°38.288 234.4 11.7 234 10.5
2009-11-20 10:37:33 51°11.525 2°38.267 234.5 11.6 235 10.3
2009-11-20 10:37:38 51°11.515 2°38.246 234.5 11.6 234 10.5
2009-11-20 10:37:42 51°11.508 2°38.23 234.2 11.6 234 10.5
2009-11-20 10:37:48 51°11.496 2°38.205 233.8 11.6 234 10.3
2009-11-20 10:37:53 51°11.487 2°38.184 234 11.6 235 10.5
2009-11-20 10:37:58 51°11.477 2°38.163 234.4 11.6 235 10.3
2009-11-20 10:38:03 51°11.468 2°38.142 234.4 11.7 234 10.5
2009-11-20 10:38:08 51°11.458 2°38.121 234.3 11.7 235 10.7
2009-11-20 10:38:13 51°11.449 2°38.1 234.3 11.6 234 10.5
2009-11-20 10:38:18 51°11.439 2°38.079 234.4 11.7 235 10.5
2009-11-20 10:38:22 51°11.432 2°38.063 234.2 11.7 234 10.5
2009-11-20 10:38:28 51°11.421 2°38.037 234.3 11.7 235 10.9
2009-11-20 10:38:33 51°11.411 2°38.016 234.4 11.7 234 10.8
2009-11-20 10:38:38 51°11.402 2°37.995 234.4 11.7 235 11
2009-11-20 10:38:43 51°11.392 2°37.974 234.3 11.7 235 11.1
2009-11-20 10:38:48 51°11.383 2°37.953 234.4 11.7 235 11.1
2009-11-20 10:38:53 51°11.374 2°37.932 234.5 11.7 235 11.6
2009-11-20 10:38:58 51°11.364 2°37.911 234.7 11.7 235 11.6
2009-11-20 10:39:03 51°11.355 2°37.89 234.5 11.7 235 11.5
2009-11-20 10:39:08 51°11.346 2°37.869 234.5 11.7 234 11.3
2009-11-20 10:39:13 51°11.336 2°37.848 234.3 11.7 235 11.3
2009-11-20 10:39:18 51°11.327 2°37.827 234.5 11.7 235 11.5
2009-11-20 10:39:22 51°11.319 2°37.81 234.5 11.6 235 11.8
2009-11-20 10:39:28 51°11.308 2°37.785 234.7 11.7 235 11.4
2009-11-20 10:39:33 51°11.299 2°37.764 234.8 11.6 235 11.7
2009-11-20 10:39:38 51°11.289 2°37.743 234.7 11.7 235 11.4
2009-11-20 10:39:43 51°11.28 2°37.722 234.6 11.6 235 11.6
2009-11-20 10:39:48 51°11.271 2°37.701 234.5 11.7 234 11.9
2009-11-20 10:39:53 51°11.261 2°37.68 234.9 11.7 235 11.4
2009-11-20 10:39:58 51°11.252 2°37.659 234.7 11.7 234 11.7
2009-11-20 10:40:02 51°11.244 2°37.642 234.5 11.6 235 11.3
2009-11-20 10:40:08 51°11.233 2°37.617 234.3 11.7 234 11.8
2009-11-20 10:40:13 51°11.224 2°37.596 234.6 11.7 235 11.5
2009-11-20 10:40:18 51°11.214 2°37.576 234.1 11.7 233 11.6
2009-11-20 10:40:23 51°11.205 2°37.555 234.3 11.6 235 11.6
2009-11-20 10:40:28 51°11.195 2°37.534 234.1 11.7 234 11.7
2009-11-20 10:40:33 51°11.186 2°37.513 234.3 11.6 235 11.6
2009-11-20 10:40:38 51°11.176 2°37.492 234.5 11.6 234 11.4
2009-11-20 10:40:43 51°11.167 2°37.471 234.5 11.6 235 11.8
2009-11-20 10:40:48 51°11.157 2°37.45 234.5 11.7 234 11.7
2009-11-20 10:40:53 51°11.148 2°37.429 234.5 11.7 235 11.7
2009-11-20 10:40:58 51°11.139 2°37.409 234.5 11.7 234 11.9
2009-11-20 10:41:03 51°11.129 2°37.388 234 11.7 234 11.6
2009-11-20 10:41:08 51°11.12 2°37.367 234.5 11.6 235 11.4
2009-11-20 10:41:13 51°11.11 2°37.346 234.1 11.7 234 11.6
2009-11-20 10:41:18 51°11.101 2°37.325 233.8 11.6 235 11.7
2009-11-20 10:41:23 51°11.092 2°37.304 234.5 11.6 235 11.6
2009-11-20 10:41:28 51°11.082 2°37.283 234.5 11.7 234 11.5
2009-11-20 10:41:33 51°11.073 2°37.263 234.6 11.6 235 12.1
2009-11-20 10:41:38 51°11.063 2°37.242 234.5 11.7 234 12
2009-11-20 10:41:42 51°11.056 2°37.225 234.2 11.6 235 11.7
2009-11-20 10:41:48 51°11.045 2°37.2 234.2 11.6 233 11.9
2009-11-20 10:41:53 51°11.035 2°37.179 233.8 11.6 234 12.1
2009-11-20 10:41:58 51°11.026 2°37.159 234.2 11.6 234 11.9
2009-11-20 10:42:02 51°11.018 2°37.142 233.8 11.6 234 12
2009-11-20 10:42:08 51°11.007 2°37.117 234 11.6 234 11.7
2009-11-20 10:42:13 51°10.997 2°37.096 233.9 11.7 234 11.8
2009-11-20 10:42:18 51°10.988 2°37.075 233.9 11.7 235 11.8
2009-11-20 10:42:23 51°10.978 2°37.055 234.5 11.6 234 11.6
2009-11-20 10:42:28 51°10.969 2°37.034 233.8 11.6 234 11.5
2009-11-20 10:42:33 51°10.959 2°37.013 233.8 11.7 234 11.5
2009-11-20 10:42:38 51°10.95 2°36.992 233.7 11.6 234 11.6
2009-11-20 10:42:42 51°10.942 2°36.976 233.8 11.6 234 11.5
2009-11-20 10:42:48 51°10.93 2°36.951 233.8 11.7 234 11.6
2009-11-20 10:42:53 51°10.921 2°36.93 234.2 11.6 235 11.4
2009-11-20 10:42:58 51°10.911 2°36.909 234.2 11.6 233 11.2
2009-11-20 10:43:03 51°10.902 2°36.888 233.7 11.6 235 11.2
2009-11-20 10:43:07 51°10.895 2°36.872 234.5 11.6 234 11.2
2009-11-20 10:43:13 51°10.883 2°36.847 234 11.6 234 11.2
2009-11-20 10:43:18 51°10.873 2°36.826 234.2 11.6 234 11.3
2009-11-20 10:43:23 51°10.864 2°36.806 234.1 11.7 234 11.4
2009-11-20 10:43:28 51°10.855 2°36.785 234.1 11.6 234 11.3
2009-11-20 10:43:33 51°10.845 2°36.764 234.3 11.6 235 11.3
2009-11-20 10:43:38 51°10.836 2°36.743 234.5 11.6 234 11.2
2009-11-20 10:43:43 51°10.827 2°36.722 234.5 11.6 235 11.5
2009-11-20 10:43:48 51°10.817 2°36.701 234.5 11.6 235 11.4
2009-11-20 10:43:53 51°10.807 2°36.681 233.1 11.6 232 11.3
2009-11-20 10:43:58 51°10.797 2°36.661 232.1 11.6 232 11.1
2009-11-20 10:44:02 51°10.789 2°36.645 231.4 11.6 231 11.1
2009-11-20 10:44:08 51°10.777 2°36.622 230.6 11.6 230 11.1
2009-11-20 10:44:13 51°10.767 2°36.602 230.2 11.6 231 10.9
2009-11-20 10:44:18 51°10.755 2°36.584 228.9 11.6 227 11.2
2009-11-20 10:44:23 51°10.744 2°36.565 227.1 11.6 226 10.8
2009-11-20 10:44:28 51°10.734 2°36.546 226.5 11.6 227 11.1
2009-11-20 10:44:33 51°10.722 2°36.528 225.6 11.6 225 11.3
2009-11-20 10:44:38 51°10.711 2°36.51 224.7 11.6 225 11
2009-11-20 10:44:42 51°10.702 2°36.496 224.4 11.6 226 10.8
2009-11-20 10:44:48 51°10.688 2°36.474 224.4 11.6 225 11.2
2009-11-20 10:44:53 51°10.677 2°36.457 224 11.6 224 10.9
2009-11-20 10:44:58 51°10.665 2°36.438 223.5 11.6 225 10.9
2009-11-20 10:45:03 51°10.654 2°36.42 223.7 11.6 224 10.8
2009-11-20 10:45:08 51°10.642 2°36.403 223.6 11.6 224 10.7
2009-11-20 10:45:13 51°10.63 2°36.386 222.9 11.6 223 10.8
2009-11-20 10:45:18 51°10.619 2°36.368 222.9 11.6 223 10.9
2009-11-20 10:45:22 51°10.61 2°36.354 223.2 11.6 223 10.9
2009-11-20 10:45:28 51°10.595 2°36.334 221.8 11.6 221 10.8
2009-11-20 10:45:33 51°10.583 2°36.317 221.1 11.5 222 10.8
2009-11-20 10:45:38 51°10.571 2°36.3 220.5 11.6 220 10.7
2009-11-20 10:45:43 51°10.559 2°36.284 219.5 11.6 220 10.6
2009-11-20 10:45:48 51°10.546 2°36.268 219.1 11.5 219 10.8
2009-11-20 10:45:53 51°10.534 2°36.252 218.6 11.6 219 10.5
2009-11-20 10:45:58 51°10.522 2°36.236 218.4 11.5 220 10.3
2009-11-20 10:46:02 51°10.511 2°36.225 216.5 11.5 215 10.6
2009-11-20 10:46:08 51°10.496 2°36.206 215.5 11.5 217 10.4
2009-11-20 10:46:13 51°10.482 2°36.192 215.3 11.5 215 10.5
2009-11-20 10:46:18 51°10.469 2°36.177 214.5 11.6 215 10.5
2009-11-20 10:46:22 51°10.459 2°36.166 213.9 11.5 215 10.6
2009-11-20 10:46:28 51°10.443 2°36.148 214 11.5 215 10.5
2009-11-20 10:46:33 51°10.43 2°36.135 212.8 11.5 213 10.6
2009-11-20 10:46:38 51°10.416 2°36.121 212.7 11.4 214 10.6
2009-11-20 10:46:43 51°10.403 2°36.108 211.6 11.5 210 10.9
2009-11-20 10:46:48 51°10.389 2°36.095 210.4 11.5 211 10.6
2009-11-20 10:46:53 51°10.375 2°36.082 210.1 11.5 210 10.4
2009-11-20 10:46:58 51°10.361 2°36.07 209.1 11.6 209 10.5
2009-11-20 10:47:02 51°10.35 2°36.06 208.5 11.5 210 10.7
2009-11-20 10:47:08 51°10.333 2°36.045 208.5 11.5 209 10.8
2009-11-20 10:47:13 51°10.32 2°36.033 207.7 11.5 208 10.7
2009-11-20 10:47:18 51°10.306 2°36.021 207.7 11.5 209 10.5
2009-11-20 10:47:23 51°10.291 2°36.009 208.1 11.4 209 10.4
2009-11-20 10:47:28 51°10.277 2°35.998 207.8 11.4 208 10.5
2009-11-20 10:47:33 51°10.263 2°35.986 207.4 11.4 208 10.6
2009-11-20 10:47:38 51°10.249 2°35.976 204.9 11.4 203 11
2009-11-20 10:47:43 51°10.234 2°35.965 202.7 11.5 204 11.1
2009-11-20 10:47:48 51°10.22 2°35.956 202.5 11.4 203 11.5
2009-11-20 10:47:53 51°10.205 2°35.947 200.3 11.5 200 11.8
2009-11-20 10:47:58 51°10.19 2°35.937 199.7 11.5 203 12.6
2009-11-20 10:48:03 51°10.175 2°35.929 200 11.4 200 13.2
2009-11-20 10:48:08 51°10.161 2°35.92 198.2 11.5 201 13.4
2009-11-20 10:48:13 51°10.146 2°35.911 198.7 11.5 200 14
2009-11-20 10:48:18 51°10.13 2°35.904 198 11.5 197 14.4
2009-11-20 10:48:22 51°10.118 2°35.897 196.7 11.4 198 14.9
2009-11-20 10:48:28 51°10.1 2°35.891 194 11.4 193 15.3
2009-11-20 10:48:33 51°10.084 2°35.886 191.3 11.3 191 15.6
2009-11-20 10:48:38 51°10.069 2°35.884 188 11.2 186 16.1
2009-11-20 10:48:43 51°10.053 2°35.881 185.5 11.2 187 16.6
2009-11-20 10:48:48 51°10.038 2°35.882 181.5 11.2 181 17
2009-11-20 10:48:53 51°10.022 2°35.883 177.6 11.1 178 17.3
2009-11-20 10:48:58 51°10.007 2°35.884 175.8 11.1 177 17.4
2009-11-20 10:49:02 51°9.995 2°35.887 172.6 11.2 172 17.6
2009-11-20 10:49:08 51°9.976 2°35.891 171.6 11.1 174 17.9
2009-11-20 10:49:13 51°9.961 2°35.895 169.6 11.2 169 18.2
2009-11-20 10:49:18 51°9.946 2°35.899 167.8 11.2 171 18.1
2009-11-20 10:49:23 51°9.931 2°35.905 167.4 11.2 168 18.4
2009-11-20 10:49:27 51°9.918 2°35.909 166.3 11.1 168 18.6
2009-11-20 10:49:33 51°9.9 2°35.916 164.9 11.2 167 18.7